createdAt,value
2023-03-04T00:00:02.923Z,97.78
2023-03-04T00:05:02.627Z,97.44
2023-03-04T00:10:02.596Z,97.51
2023-03-04T00:15:03.344Z,97.05
2023-03-04T00:20:03.211Z,97.56
2023-03-04T00:25:03.008Z,98.12
2023-03-04T00:30:02.745Z,97.63
2023-03-04T00:35:03.392Z,97.74
2023-03-04T00:40:03.002Z,97.36
2023-03-04T00:45:02.977Z,97.25
2023-03-04T00:50:02.548Z,96.93
2023-03-04T00:55:03.485Z,96.33
2023-03-04T01:00:03.438Z,97.22
2023-03-04T01:05:03.013Z,97.43
2023-03-04T01:10:02.506Z,97.98
2023-03-04T01:15:03.700Z,97.68
2023-03-04T01:20:03.327Z,97.42
2023-03-04T01:25:03.367Z,96.75
2023-03-04T01:30:03.272Z,97.04
2023-03-04T01:35:02.971Z,96.42
2023-03-04T01:40:02.864Z,96.73
2023-03-04T01:45:02.716Z,96.9
2023-03-04T01:50:03.668Z,94.98
2023-03-04T01:55:03.645Z,94.92
2023-03-04T02:00:03.018Z,95.08
2023-03-04T02:05:02.691Z,95.02
2023-03-04T02:10:02.603Z,95.24
2023-03-04T02:15:02.806Z,94.24
2023-03-04T02:20:02.849Z,94.23
2023-03-04T02:25:02.702Z,94.46
2023-03-04T02:30:03.395Z,94.67
2023-03-04T02:35:02.502Z,94.46
2023-03-04T02:40:03.504Z,94.87
2023-03-04T02:45:02.985Z,95.34
2023-03-04T02:50:02.631Z,95.02
2023-03-04T02:55:03.879Z,94.74
2023-03-04T03:00:03.184Z,95.96
2023-03-04T03:05:02.880Z,95.46
2023-03-04T03:10:02.831Z,95.66
2023-03-04T03:15:02.676Z,94.45
2023-03-04T03:20:03.649Z,95.03
2023-03-04T03:25:03.304Z,95.22
2023-03-04T03:30:02.983Z,95.05
2023-03-04T03:35:02.991Z,94.68
2023-03-04T03:40:02.734Z,94.73
2023-03-04T03:45:02.728Z,94.05
2023-03-04T03:50:02.492Z,94.66
2023-03-04T03:55:03.646Z,94.2
2023-03-04T04:00:03.456Z,94.23
2023-03-04T04:05:03.313Z,93.82
2023-03-04T04:10:03.281Z,94.07
2023-03-04T04:15:03.000Z,94.72
2023-03-04T04:20:02.752Z,95.05
2023-03-04T04:25:02.860Z,95.42
2023-03-04T04:30:02.604Z,96.92
2023-03-04T04:35:03.248Z,96.96
2023-03-04T04:40:02.885Z,97.34
2023-03-04T04:45:02.822Z,97.27
2023-03-04T04:50:02.613Z,97.04
2023-03-04T04:55:03.446Z,97.08
2023-03-04T05:00:03.207Z,96.9
2023-03-04T05:05:02.953Z,96.46
2023-03-04T05:10:02.953Z,96.79
2023-03-04T05:15:02.762Z,97.27
2023-03-04T05:20:02.594Z,96.64
2023-03-04T05:25:03.342Z,96.68
2023-03-04T05:30:03.039Z,97.01
2023-03-04T05:35:02.895Z,97.45
2023-03-04T05:40:02.622Z,97.9
2023-03-04T05:45:03.044Z,97.92
2023-03-04T05:50:03.279Z,97.83
2023-03-04T05:55:03.585Z,98.84
2023-03-04T06:00:02.914Z,99.24
2023-03-04T06:05:02.871Z,98.82
2023-03-04T06:10:02.600Z,98.37
2023-03-04T06:15:03.355Z,97.9
2023-03-04T06:20:03.110Z,98.44
2023-03-04T06:25:02.852Z,98.22
2023-03-04T06:30:02.799Z,98.78
2023-03-04T06:35:02.535Z,98.75
2023-03-04T06:40:03.354Z,99.77
2023-03-04T06:45:03.427Z,100
2023-03-04T06:50:03.409Z,100
2023-03-04T06:55:03.439Z,100
2023-03-04T07:00:02.871Z,100
2023-03-04T07:05:02.787Z,100
2023-03-04T07:10:02.570Z,100
2023-03-04T07:15:03.516Z,100
2023-03-04T07:20:03.389Z,100
2023-03-04T07:25:03.326Z,100
2023-03-04T07:30:03.449Z,100
2023-03-04T07:35:02.785Z,100
2023-03-04T07:40:03.486Z,100
2023-03-04T07:45:03.291Z,100
2023-03-04T07:50:03.092Z,100
2023-03-04T07:55:03.483Z,100
2023-03-04T08:00:02.635Z,100
2023-03-04T08:05:03.058Z,100
2023-03-04T08:10:02.965Z,100
2023-03-04T08:15:03.162Z,100
2023-03-04T08:20:02.833Z,100
2023-03-04T08:25:02.615Z,100
2023-03-04T08:30:02.710Z,100
2023-03-04T08:35:03.429Z,100
2023-03-04T08:40:03.200Z,100
2023-03-04T08:45:03.118Z,100
2023-03-04T08:50:02.612Z,100
2023-03-04T08:55:03.617Z,100
2023-03-04T09:00:02.571Z,100
2023-03-04T09:05:03.296Z,100
2023-03-04T09:10:03.284Z,100
2023-03-04T09:15:12.375Z,100
2023-03-04T09:20:04.950Z,100
2023-03-04T09:25:02.829Z,100
2023-03-04T09:30:02.724Z,100
2023-03-04T09:35:03.431Z,100
2023-03-04T09:40:03.204Z,100
2023-03-04T09:45:03.062Z,100
2023-03-04T09:50:02.948Z,100
2023-03-04T09:55:05.750Z,100
2023-03-04T10:00:02.572Z,100
2023-03-04T10:05:03.762Z,100
2023-03-04T10:10:03.132Z,100
2023-03-04T10:15:02.894Z,100
2023-03-04T10:20:02.751Z,100
2023-03-04T10:25:02.475Z,100
2023-03-04T10:30:02.867Z,95.64
2023-03-04T10:35:03.153Z,94.84
2023-03-04T10:40:02.724Z,94.91
2023-03-04T10:45:02.770Z,93.18
2023-03-04T10:50:03.361Z,96.99
2023-03-04T10:55:03.771Z,96.14
2023-03-04T11:00:03.367Z,93.51
2023-03-04T11:05:02.896Z,100
2023-03-04T11:10:02.922Z,100
2023-03-04T11:15:02.763Z,100
2023-03-04T11:20:02.625Z,100
2023-03-04T11:25:03.418Z,100
2023-03-04T11:30:03.130Z,100
2023-03-04T11:35:02.723Z,100
2023-03-04T11:40:02.581Z,100
2023-03-04T11:45:03.356Z,100
2023-03-04T11:50:03.012Z,96.39
2023-03-04T11:55:03.847Z,93.33
2023-03-04T12:00:02.929Z,90.42
2023-03-04T12:05:02.765Z,85.18
2023-03-04T12:10:03.472Z,85.99
2023-03-04T12:15:03.291Z,82.52
2023-03-04T12:20:02.995Z,83.15
2023-03-04T12:25:02.766Z,82.62
2023-03-04T12:30:03.426Z,83.01
2023-03-04T12:35:03.318Z,81.18
2023-03-04T12:40:03.165Z,81.21
2023-03-04T12:45:03.016Z,80.06
2023-03-04T12:50:02.300Z,80.31
2023-03-04T12:55:03.777Z,80.36
2023-03-04T13:00:03.308Z,80.36
2023-03-04T13:05:03.402Z,80.13
2023-03-04T13:10:02.756Z,85.98
2023-03-04T13:15:03.360Z,90.4
2023-03-04T13:20:03.176Z,88.11
2023-03-04T13:25:02.859Z,87.12
2023-03-04T13:30:02.609Z,87.73
2023-03-04T13:35:03.320Z,86.23
2023-03-04T13:40:03.065Z,85.92
2023-03-04T13:45:02.902Z,85.55
2023-03-04T13:50:02.665Z,86.03
2023-03-04T13:55:02.904Z,85.81
2023-03-04T14:00:03.492Z,86.32
2023-03-04T14:05:04.043Z,86.27
2023-03-04T14:10:03.143Z,86.19
2023-03-04T14:15:02.672Z,82.55
2023-03-04T14:20:03.037Z,83.3
2023-03-04T14:25:02.702Z,81.49
2023-03-04T14:30:02.527Z,80.76
2023-03-04T14:35:03.417Z,80.34
2023-03-04T14:40:03.279Z,79.14
2023-03-04T14:45:03.156Z,78.15
2023-03-04T14:50:02.801Z,79.91
2023-03-04T14:55:03.969Z,79.76
2023-03-04T15:00:03.157Z,82.18
2023-03-04T15:05:02.975Z,80.94
2023-03-04T15:10:03.078Z,82.09
2023-03-04T15:15:02.444Z,82.77
2023-03-04T15:20:02.643Z,81.14
2023-03-04T15:25:03.455Z,82.45
2023-03-04T15:30:03.197Z,82.75
2023-03-04T15:35:03.072Z,83.62
2023-03-04T15:40:02.837Z,83.34
2023-03-04T15:45:02.676Z,82.41
2023-03-04T15:50:03.395Z,83.41
2023-03-04T15:55:03.599Z,82.67
2023-03-04T16:00:03.015Z,82.19
2023-03-04T16:05:02.829Z,79.43
2023-03-04T16:10:02.634Z,80.68
2023-03-04T16:15:05.843Z,79.14
2023-03-04T16:20:02.662Z,78.78
2023-03-04T16:25:03.318Z,78.44
2023-03-04T16:30:03.338Z,79.64
2023-03-04T16:35:02.869Z,78.03
2023-03-04T16:40:02.629Z,77.17
2023-03-04T16:45:02.565Z,76.72
2023-03-04T16:50:03.980Z,76.03
2023-03-04T16:55:03.256Z,76.1
2023-03-04T17:00:03.522Z,75.79
2023-03-04T17:05:03.019Z,74.83
2023-03-04T17:10:03.122Z,74.13
2023-03-04T17:15:02.672Z,75.21
2023-03-04T17:20:03.352Z,75.47
2023-03-04T17:25:03.438Z,75.46
2023-03-04T17:30:03.172Z,76.05
2023-03-04T17:35:02.452Z,77
2023-03-04T17:40:02.864Z,78.55
2023-03-04T17:45:03.453Z,76.67
2023-03-04T17:50:03.164Z,76.14
2023-03-04T17:55:03.442Z,76.74
2023-03-04T18:00:03.043Z,76.9
2023-03-04T18:05:03.363Z,77.56
2023-03-04T18:10:02.582Z,77.55
2023-03-04T18:15:03.280Z,78.05
2023-03-04T18:20:03.183Z,76.77
2023-03-04T18:25:02.996Z,76.62
2023-03-04T18:30:03.036Z,77.68
2023-03-04T18:35:03.461Z,77.91
2023-03-04T18:40:03.279Z,77.67
2023-03-04T18:45:03.327Z,76.83
2023-03-04T18:50:03.037Z,77.05
2023-03-04T18:55:03.498Z,78.32
2023-03-04T19:00:03.225Z,77.58
2023-03-04T19:05:02.799Z,78.31
2023-03-04T19:10:03.469Z,78.25
2023-03-04T19:15:03.492Z,77.57
2023-03-04T19:20:02.992Z,79.77
2023-03-04T19:25:02.935Z,80.99
2023-03-04T19:30:03.483Z,80.04
2023-03-04T19:35:03.620Z,81.3
2023-03-04T19:40:02.489Z,81.33
2023-03-04T19:45:03.188Z,82.15
2023-03-04T19:50:02.649Z,82.83
2023-03-04T19:55:03.001Z,83.79
2023-03-04T20:00:03.176Z,83.96
2023-03-04T20:05:03.251Z,83.91
2023-03-04T20:10:03.042Z,84.42
2023-03-04T20:15:03.066Z,84.61
2023-03-04T20:20:03.016Z,85.28
2023-03-04T20:25:02.701Z,84.79
2023-03-04T20:30:04.483Z,85.49
2023-03-04T20:35:03.332Z,85.59
2023-03-04T20:40:03.050Z,84.13
2023-03-04T20:45:02.990Z,83.8
2023-03-04T20:50:02.690Z,83.7
2023-03-04T20:55:03.351Z,82.84
2023-03-04T21:00:02.908Z,82.06
2023-03-04T21:05:02.686Z,81.31
2023-03-04T21:10:03.493Z,82.63
2023-03-04T21:15:03.331Z,82.67
2023-03-04T21:20:03.219Z,83.17
2023-03-04T21:25:03.074Z,81.99
2023-03-04T21:30:02.904Z,82.08
2023-03-04T21:35:02.745Z,83.1
2023-03-04T21:40:02.661Z,81.75
2023-03-04T21:45:03.603Z,81.31
2023-03-04T21:50:03.318Z,80.34
2023-03-04T21:55:03.426Z,79.88
2023-03-04T22:00:06.816Z,79.32
2023-03-04T22:05:02.533Z,78.47
2023-03-04T22:10:02.316Z,80.35
2023-03-04T22:15:03.370Z,79.83
2023-03-04T22:20:03.199Z,80.97
2023-03-04T22:25:02.864Z,80.67
2023-03-04T22:30:02.648Z,79.97
2023-03-04T22:35:03.539Z,77.51
2023-03-04T22:40:03.236Z,78.16
2023-03-04T22:45:03.058Z,78.32
2023-03-04T22:50:02.881Z,78.93
2023-03-04T22:55:03.141Z,80.63
2023-03-04T23:00:03.602Z,78.38
2023-03-04T23:05:02.614Z,77.46
2023-03-04T23:10:03.497Z,77.92
2023-03-04T23:15:03.248Z,78.28
2023-03-04T23:20:03.336Z,78.4
2023-03-04T23:25:03.074Z,79
2023-03-04T23:30:02.847Z,78.31
2023-03-04T23:35:03.492Z,79.12
2023-03-04T23:40:02.632Z,78.02
2023-03-04T23:45:03.493Z,78.06
2023-03-04T23:50:03.218Z,78
2023-03-04T23:55:03.371Z,76.72
